General Aviation Weather

Text Reports

Enter one or more of the following location identifiers separated by a space:

Zip Code, Four-Character ICAO or Three-Character IATA airport codes.

METAR - Aviation Routine Weather Report
KPCZ - Waupaca, Wisconsin
Updated at 5:35 PM GMT on April 01, 2015 (12:35 PM CDT):
METAR KPCZ 011735Z AUTO 11011G16KT 10SM CLR 14/01 A2994 RMK AO2 T01430010
TAF - Terminal Area Forecast
KPCZ - Waupaca, Wisconsin
Updated at 5:35 PM GMT on April 01, 2015 (12:35 PM CDT):
No TAF is currently available for this location.
Decoded:
No decoded TAF is available.
PIREP - Pilot Weather Report
KPCZ - Waupaca, Wisconsin
Updated at 5:35 PM GMT on April 01, 2015 (12:35 PM CDT):
No PIREP is currently available for this location.
AIRMET - Airmens Meteorological Information
KPCZ - Waupaca, Wisconsin
Updated at 5:35 PM GMT on April 01, 2015 (12:35 PM CDT):
No AIRMET is currently available for this location.
SIGMET - Significant Meteorological Information
KPCZ - Waupaca, Wisconsin
Updated at 5:35 PM GMT on April 01, 2015 (12:35 PM CDT):
No SIGMET is currently available for this location.
NOTAM - Notice to Airmen
KPCZ - Waupaca, Wisconsin
Updated at 5:35 PM GMT on April 01, 2015 (12:35 PM CDT):
No NOTAM is currently available for this location.
Forecast Area
KPCZ - Waupaca, Wisconsin
Updated at 5:35 PM GMT on April 01, 2015 (12:35 PM CDT):
No NOTAM is currently available for this location.
Aviation Weather Maps